Decoded Metar for EPWR (WROCLAW in POLAND) (IATA:WRO) | Meteo·Mobile Aviation Weather
aviador You're here:

EPWR Decoded Metar

WROCLAW in POLAND
Report Time2018-08-21 10:30:00
UTC Time2018-08-21 10:37:25
Flight Rules vfr VFR
Wind360° at 06 kt
W.Decomp.*RWY 29: 2.3 kt HW 5.5 kt RCW
Visibility9999 m
Phenomena:N/A
Clouds:Few 030 Hf
Expected CloudBase > 3,200 ft AGL from Temp-Dew spread
CeilingNone
Temp22°C (ISA +8)
Dew Point14°C (61% RH)
AAT21.1°C
QNH1021 hPa
Density Alt1,250 ft
Elevation397 ft
Report Wrong Elevation
Raw Report
EPWR 211030Z 36006KT 320V110 9999 FEW030 22/14 Q1021=

Extra information for EPWR:More info

Metar Taf Metar & Taf Last 4 Metars F.Rules Stats Wind Profile Meteogram Temp Stats Airport Information Weather charts Add Link Nearby VenuesMetar ALERT Operation Metar Decoded Social comments